createdAt,value
2022-10-17T00:04:01.821Z,99666.97
2022-10-17T00:10:06.141Z,99652.69
2022-10-17T00:16:09.100Z,99664.69
2022-10-17T00:22:14.636Z,99658.91
2022-10-17T00:28:17.541Z,99667.09
2022-10-17T00:34:19.386Z,99658.84
2022-10-17T00:40:21.293Z,99667.59
2022-10-17T00:46:27.442Z,99679.97
2022-10-17T00:52:31.241Z,99677.59
2022-10-17T00:58:33.407Z,99680.69
2022-10-17T01:04:38.018Z,99682.38
2022-10-17T01:11:26.333Z,99685.69
2022-10-17T01:17:46.043Z,99692.63
2022-10-17T01:24:20.557Z,99686.84
2022-10-17T01:31:08.719Z,99697.44
2022-10-17T01:37:47.022Z,99685.66
2022-10-17T01:44:03.581Z,99681.91
2022-10-17T01:50:14.176Z,99688.97
2022-10-17T01:56:18.480Z,99679.47
2022-10-17T02:02:38.325Z,99664.06
2022-10-17T02:08:49.016Z,99659.63
2022-10-17T02:21:24.405Z,99652.16
2022-10-17T02:28:09.294Z,99660.63
2022-10-17T02:34:29.050Z,99655.88
2022-10-17T02:40:32.211Z,99647.16
2022-10-17T02:46:45.017Z,99644.00
2022-10-17T02:53:07.118Z,99651.22
2022-10-17T02:59:12.370Z,99644.97
2022-10-17T03:05:28.688Z,99659.84
2022-10-17T03:11:30.568Z,99652.28
2022-10-17T03:17:32.673Z,99670.97
2022-10-17T03:23:34.590Z,99665.81
2022-10-17T03:29:36.463Z,99656.75
2022-10-17T03:35:42.673Z,99652.81
2022-10-17T03:41:44.625Z,99656.34
2022-10-17T03:47:46.531Z,99670.00
2022-10-17T03:53:48.482Z,99664.44
2022-10-17T03:59:52.433Z,99673.03
2022-10-17T04:05:54.534Z,99678.50
2022-10-17T04:11:56.470Z,99674.22
2022-10-17T04:17:58.474Z,99678.50
2022-10-17T04:24:01.250Z,99678.97
2022-10-17T04:30:03.494Z,99681.59
2022-10-17T04:36:12.405Z,99674.91
2022-10-17T04:42:14.281Z,99666.59
2022-10-17T04:48:16.158Z,99682.69
2022-10-17T04:54:18.253Z,99702.13
2022-10-17T05:00:21.482Z,99695.44
2022-10-17T05:06:28.237Z,99700.91
2022-10-17T05:12:30.458Z,99706.44
2022-10-17T05:18:32.886Z,99693.69
2022-10-17T05:24:35.248Z,99716.69
2022-10-17T05:30:37.734Z,99710.75
2022-10-17T05:36:40.306Z,99715.13
2022-10-17T05:42:49.735Z,99709.97
2022-10-17T05:48:52.739Z,99724.88
2022-10-17T05:54:54.636Z,99728.75
2022-10-17T06:01:04.450Z,99736.00
2022-10-17T06:07:06.890Z,99736.00
2022-10-17T06:13:12.110Z,99740.09
2022-10-17T06:19:14.419Z,99747.66
2022-10-17T06:25:16.372Z,99754.66
2022-10-17T06:31:18.351Z,99751.97
2022-10-17T06:37:20.719Z,99745.34
2022-10-17T06:43:27.737Z,99758.78
2022-10-17T06:49:31.732Z,99763.69
2022-10-17T06:55:34.328Z,99786.28
2022-10-17T07:01:36.777Z,99780.69
2022-10-17T07:07:43.062Z,99780.59
2022-10-17T07:13:47.813Z,99776.06
2022-10-17T07:19:49.815Z,99800.38
2022-10-17T07:25:55.151Z,99811.06
2022-10-17T07:32:00.448Z,99800.25
2022-10-17T07:38:02.376Z,99809.09
2022-10-17T07:44:04.685Z,99802.28
2022-10-17T07:50:07.400Z,99797.38
2022-10-17T07:56:10.090Z,99793.06
2022-10-17T08:02:23.602Z,99786.75
2022-10-17T08:08:25.642Z,99803.09
2022-10-17T08:14:27.683Z,99806.47
2022-10-17T08:20:29.657Z,99801.56
2022-10-17T08:26:31.868Z,99813.38
2022-10-17T08:32:33.826Z,99807.31
2022-10-17T08:38:41.459Z,99807.78
2022-10-17T08:45:03.623Z,99811.31
2022-10-17T08:51:20.022Z,99803.75
2022-10-17T08:57:22.107Z,99803.06
2022-10-17T09:04:05.761Z,99811.03
2022-10-17T09:10:15.561Z,99816.91
2022-10-17T09:16:43.598Z,99820.03
2022-10-17T09:23:19.253Z,99818.88
2022-10-17T09:29:29.595Z,99811.00
2022-10-17T09:35:35.196Z,99808.97
2022-10-17T09:41:52.021Z,99817.66
2022-10-17T09:48:17.022Z,99823.56
2022-10-17T09:54:46.054Z,99820.59
2022-10-17T10:00:49.236Z,99825.91
2022-10-17T10:07:21.476Z,99835.00
2022-10-17T10:13:27.481Z,99826.56
2022-10-17T10:19:34.240Z,99820.81
2022-10-17T10:25:36.631Z,99837.81
2022-10-17T10:31:40.221Z,99826.78
2022-10-17T10:37:51.716Z,99818.03
2022-10-17T10:43:56.340Z,99812.59
2022-10-17T10:50:38.124Z,99818.63
2022-10-17T10:56:53.451Z,99808.47
2022-10-17T11:03:26.907Z,99816.13
2022-10-17T11:09:34.449Z,99811.63
2022-10-17T11:15:49.148Z,99824.06
2022-10-17T11:22:14.894Z,99822.81
2022-10-17T11:28:23.623Z,99831.59
2022-10-17T11:34:31.290Z,99843.38
2022-10-17T11:40:39.201Z,99829.38
2022-10-17T11:47:11.552Z,99832.09
2022-10-17T11:53:19.163Z,99825.56
2022-10-17T11:59:58.244Z,99797.38
2022-10-17T12:06:08.349Z,99795.94
2022-10-17T12:12:30.033Z,99809.75
2022-10-17T12:18:33.089Z,99794.63
2022-10-17T12:24:56.802Z,99796.19
2022-10-17T12:38:27.890Z,99792.28
2022-10-17T12:44:34.976Z,99805.47
2022-10-17T12:51:00.720Z,99801.59
2022-10-17T12:57:33.419Z,99792.28
2022-10-17T13:03:45.261Z,99803.75
2022-10-17T13:09:49.958Z,99825.69
2022-10-17T13:15:55.274Z,99816.53
2022-10-17T13:22:06.727Z,99844.91
2022-10-17T13:28:13.798Z,99857.06
2022-10-17T13:34:26.746Z,99850.34
2022-10-17T13:40:49.226Z,99845.50
2022-10-17T13:46:52.511Z,99838.72
2022-10-17T13:53:24.706Z,99841.94
2022-10-17T13:59:41.156Z,99834.28
2022-10-17T14:06:17.300Z,99845.19
2022-10-17T14:12:21.078Z,99843.50
2022-10-17T14:18:36.133Z,99846.22
2022-10-17T14:24:39.703Z,99841.09
2022-10-17T14:31:02.446Z,99845.84
2022-10-17T14:37:12.735Z,99860.09
2022-10-17T14:43:21.475Z,99872.75
2022-10-17T14:49:32.776Z,99868.25
2022-10-17T14:55:36.883Z,99868.38
2022-10-17T15:01:38.743Z,99878.91
2022-10-17T15:07:42.011Z,99886.56
2022-10-17T15:13:49.169Z,99884.38
2022-10-17T15:26:15.907Z,99891.53
2022-10-17T15:32:17.824Z,99897.81
2022-10-17T15:38:19.806Z,99899.13
2022-10-17T15:44:21.758Z,99901.75
2022-10-17T15:50:23.972Z,99912.06
2022-10-17T15:56:31.782Z,99916.28
2022-10-17T16:02:34.246Z,99926.56
2022-10-17T16:08:36.133Z,99947.91
2022-10-17T16:14:38.005Z,99946.00
2022-10-17T16:20:39.944Z,99951.56
2022-10-17T16:26:42.196Z,99961.13
2022-10-17T16:32:44.925Z,99961.84
2022-10-17T16:38:48.046Z,99957.66
2022-10-17T16:44:50.734Z,99972.69
2022-10-17T16:50:52.656Z,99978.84
2022-10-17T16:56:54.662Z,99988.81
2022-10-17T17:02:56.517Z,99976.00
2022-10-17T17:08:58.970Z,99989.50
2022-10-17T17:15:01.272Z,99998.88
2022-10-17T17:21:06.983Z,100005.00
2022-10-17T17:27:11.330Z,100005.66
2022-10-17T17:33:15.387Z,100017.25
2022-10-17T17:39:17.388Z,100026.56
2022-10-17T17:45:19.521Z,100037.06
2022-10-17T17:51:28.386Z,100027.00
2022-10-17T17:57:31.083Z,100040.16
2022-10-17T18:03:33.008Z,100051.75
2022-10-17T18:09:35.075Z,100048.59
2022-10-17T18:15:40.066Z,100042.41
2022-10-17T18:21:44.372Z,100056.22
2022-10-17T18:27:48.195Z,100051.09
2022-10-17T18:33:56.588Z,100069.72
2022-10-17T18:39:58.518Z,100074.25
2022-10-17T18:46:19.445Z,100074.50
2022-10-17T18:52:21.476Z,100067.75
2022-10-17T18:58:23.878Z,100067.75
2022-10-17T19:04:26.225Z,100063.81
2022-10-17T19:10:28.238Z,100063.97
2022-10-17T19:16:36.431Z,100066.72
2022-10-17T19:28:56.281Z,100088.75
2022-10-17T19:34:58.411Z,100100.81
2022-10-17T19:47:07.341Z,100110.53
2022-10-17T19:53:09.228Z,100110.16
2022-10-17T19:59:14.206Z,100104.03
2022-10-17T20:05:18.928Z,100102.44
2022-10-17T20:11:25.135Z,100107.38
2022-10-17T20:17:27.309Z,100120.06
2022-10-17T20:23:29.204Z,100124.56
2022-10-17T20:29:31.115Z,100131.50
2022-10-17T20:35:33.079Z,100128.97
2022-10-17T20:41:35.314Z,100134.41
2022-10-17T20:47:45.986Z,100140.03
2022-10-17T20:53:50.190Z,100152.97
2022-10-17T20:59:52.206Z,100145.34
2022-10-17T21:05:54.088Z,100151.09
2022-10-17T21:11:56.965Z,100176.81
2022-10-17T21:17:59.059Z,100194.47
2022-10-17T21:24:06.152Z,100191.78
2022-10-17T21:36:29.967Z,100200.06
2022-10-17T21:42:32.295Z,100206.91
2022-10-17T21:48:35.597Z,100205.44
2022-10-17T21:54:37.582Z,100207.94
2022-10-17T22:00:39.501Z,100211.66
2022-10-17T22:06:44.087Z,100218.38
2022-10-17T22:12:45.986Z,100211.94
2022-10-17T22:18:48.142Z,100227.19
2022-10-17T22:24:50.111Z,100225.75
2022-10-17T22:30:53.113Z,100219.78
2022-10-17T22:36:54.981Z,100221.94
2022-10-17T22:42:57.016Z,100216.56
2022-10-17T22:48:59.547Z,100228.94
2022-10-17T22:55:01.580Z,100229.13
2022-10-17T23:01:13.951Z,100229.31
2022-10-17T23:07:15.883Z,100227.69
2022-10-17T23:13:18.821Z,100231.63
2022-10-17T23:19:25.652Z,100227.00
2022-10-17T23:25:27.711Z,100220.53
2022-10-17T23:31:29.694Z,100229.97
2022-10-17T23:37:31.886Z,100246.41
2022-10-17T23:43:34.662Z,100235.84
2022-10-17T23:49:47.081Z,100246.88
2022-10-17T23:55:49.021Z,100240.47
